• Join FlightAware (Why Join?)
  • Login
  • US Flag 
01:51AM EDT


 

Airport Tracker/Info


-or-


 

Live Flight TrackerFlight Track Log ✈ CSJ405 ✈ 07-May-2013 ✈ KROC - CYHM

Flight Track Log - Related Links

Times and Time Zones

All times are in EDT time to prevent confusion due to time zone crossing. See the CSJ405 flight status page for this flight to view local times or setup timezone preferences in your user account.

Time Position Orientation Groundspeed Altitude Reporting Facility
EDT Latitude Longitude Course Direction KTS MPH feet Rate Location/Type
09:55PM 43.1253 -77.6506 67° East 89 102 1,200  Level Cleveland Center
09:56PM 43.1464 -77.6581 345° North 135 155 2,200 840 Climbing Cleveland Center
09:57PM 43.1458 -77.7122 269° West 145 167 2,900 660 Climbing Cleveland Center
09:58PM 43.1533 -77.7714 280° West 150 173 3,700 360 Climbing Cleveland Center
10:00PM 43.1667 -77.8833 279° West 173 199 4,000 60 Climbing Buffalo TRACON
10:01PM 43.1667 -77.9500 270° West 176 203 4,000  Level Buffalo TRACON
10:02PM 43.1667 -78.0167 270° West 174 200 4,000  Level Buffalo TRACON
10:03PM 43.1667 -78.1000 270° West 176 203 4,000  Level Buffalo TRACON
10:04PM 43.1500 -78.1000 180° South 170 196 4,000  Level Toronto Center
10:05PM 43.1500 -78.2000 270° West 180 207 4,000  Level Toronto Center
10:06PM 43.1500 -78.2333 270° West 170 196 4,000  Level Toronto Center
10:07PM 43.1500 -78.3000 270° West 180 207 4,000  Level Toronto Center
10:08PM 43.1500 -78.3833 270° West 170 196 4,000  Level Toronto Center
10:09PM 43.1500 -78.4500 270° West 180 207 4,000  Level Toronto Center
10:10PM 43.1667 -78.5167 289° West 180 207 4,000  Level Toronto Center
10:11PM 43.1667 -78.5833 270° West 180 207 4,000  Level Toronto Center
10:12PM 43.1667 -78.6500 270° West 180 207 4,000  Level Toronto Center
10:13PM 43.1667 -78.7167 270° West 180 207 4,000  Level Toronto Center
10:14PM 43.1667 -78.7833 270° West 180 207 4,000  Level Toronto Center
10:15PM 43.1667 -78.8500 270° West 180 207 4,000  Level Toronto Center
10:16PM 43.1667 -78.9167 270° West 180 207 4,000  Level Toronto Center
10:17PM 43.1667 -79.0000 270° West 180 207 4,000  Level Toronto Center
10:18PM 43.1500 -79.0667 251° West 180 207 4,000  Level Toronto Center
10:19PM 43.1500 -79.1333 270° West 180 207 4,000  Level Toronto Center
10:20PM 43.1500 -79.1833 270° West 180 207 4,000  Level Toronto Center
10:21PM 43.1500 -79.2667 270° West 180 207 4,000  Level Toronto Center
10:22PM 43.1500 -79.3333 270° West 180 207 4,000  Level Toronto Center
10:23PM 43.1500 -79.3833 270° West 180 207 4,000  Level Toronto Center
10:24PM 43.1500 -79.4667 270° West 180 207 4,000  Level Toronto Center
10:25PM 43.1500 -79.5500 270° West 180 207 4,000  Level Toronto Center
10:26PM 43.1500 -79.6167 270° West 180 207 4,000 -240 Level Toronto Center
10:27PM 43.1333 -79.6833 251° West 190 219 3,600 -540 Descending Toronto Center
10:28PM 43.1333 -79.7500 270° West 190 219 3,000 -840 Descending Toronto Center
10:29PM 43.1500 -79.8167 289° West 190 219 2,000 -900 Descending Toronto Center
10:30PM 43.1667 -79.8833 289° West 170 196 1,200 -600 Descending Toronto Center
10:31PM 43.1667 -79.9000 270° West 80 92 800 -240 Descending Toronto Center
10:32PM 43.1667 -79.9000 270° West 30 35 800  Level Toronto Center